sensor_id;sensor_type;location;lat;lon;timestamp;pressure;altitude;pressure_sealevel;temperature;humidity
62508;BME280;48556;51.972;4.624;2022-09-16T00:01:16;101190.38;;;18.17;56.29
62508;BME280;48556;51.972;4.624;2022-09-16T00:03:42;101190.25;;;18.20;55.73
62508;BME280;48556;51.972;4.624;2022-09-16T00:06:20;101198.06;;;18.25;55.49
62508;BME280;48556;51.972;4.624;2022-09-16T00:08:48;101198.44;;;17.90;55.13
62508;BME280;48556;51.972;4.624;2022-09-16T00:11:14;101193.28;;;17.60;55.39
62508;BME280;48556;51.972;4.624;2022-09-16T00:13:40;101195.47;;;17.49;55.89
62508;BME280;48556;51.972;4.624;2022-09-16T00:16:18;101196.63;;;17.67;55.35
62508;BME280;48556;51.972;4.624;2022-09-16T00:18:44;101193.19;;;17.89;54.89
62508;BME280;48556;51.972;4.624;2022-09-16T00:21:10;101187.41;;;18.01;53.99
62508;BME280;48556;51.972;4.624;2022-09-16T00:23:36;101190.72;;;18.08;53.61
62508;BME280;48556;51.972;4.624;2022-09-16T00:26:02;101186.50;;;18.26;53.09
62508;BME280;48556;51.972;4.624;2022-09-16T00:28:28;101189.38;;;18.43;53.21
62508;BME280;48556;51.972;4.624;2022-09-16T00:31:00;101195.22;;;18.53;53.02
62508;BME280;48556;51.972;4.624;2022-09-16T00:33:27;101196.47;;;18.43;52.96
62508;BME280;48556;51.972;4.624;2022-09-16T00:36:13;101235.09;;;17.30;54.46
62508;BME280;48556;51.972;4.624;2022-09-16T00:38:40;101218.38;;;16.71;60.57
62508;BME280;48556;51.972;4.624;2022-09-16T00:41:07;101204.75;;;16.82;61.42
62508;BME280;48556;51.972;4.624;2022-09-16T00:43:51;101208.06;;;16.90;61.00
62508;BME280;48556;51.972;4.624;2022-09-16T00:46:24;101206.44;;;16.85;60.48
62508;BME280;48556;51.972;4.624;2022-09-16T00:48:52;101194.56;;;16.98;60.29
62508;BME280;48556;51.972;4.624;2022-09-16T00:51:19;101207.09;;;16.65;60.31
62508;BME280;48556;51.972;4.624;2022-09-16T00:53:52;101201.75;;;16.95;60.17
62508;BME280;48556;51.972;4.624;2022-09-16T00:56:24;101202.50;;;16.70;59.96
62508;BME280;48556;51.972;4.624;2022-09-16T00:59:05;101203.88;;;17.10;59.43
62508;BME280;48556;51.972;4.624;2022-09-16T01:01:33;101201.84;;;17.18;59.56
62508;BME280;48556;51.972;4.624;2022-09-16T01:06:56;101198.72;;;16.77;60.53
62508;BME280;48556;51.972;4.624;2022-09-16T01:09:24;101201.16;;;16.85;60.02
62508;BME280;48556;51.972;4.624;2022-09-16T01:11:50;101196.78;;;16.82;60.74
62508;BME280;48556;51.972;4.624;2022-09-16T01:14:18;101199.34;;;17.14;60.30
62508;BME280;48556;51.972;4.624;2022-09-16T01:17:22;101209.97;;;16.57;61.81
62508;BME280;48556;51.972;4.624;2022-09-16T01:23:01;101235.03;;;15.87;63.53
62508;BME280;48556;51.972;4.624;2022-09-16T01:28:36;101225.00;;;15.64;65.00
62508;BME280;48556;51.972;4.624;2022-09-16T01:34:23;101210.88;;;15.96;63.83
62508;BME280;48556;51.972;4.624;2022-09-16T01:40:06;101233.16;;;16.22;63.04
62508;BME280;48556;51.972;4.624;2022-09-16T01:48:15;101206.25;;;17.19;61.08
62508;BME280;48556;51.972;4.624;2022-09-16T01:53:44;101216.47;;;17.32;60.71
62508;BME280;48556;51.972;4.624;2022-09-16T01:56:52;101215.53;;;17.33;60.98
62508;BME280;48556;51.972;4.624;2022-09-16T01:59:27;101203.56;;;17.46;61.40
62508;BME280;48556;51.972;4.624;2022-09-16T02:02:06;101216.63;;;17.52;61.13
62508;BME280;48556;51.972;4.624;2022-09-16T02:04:40;101215.44;;;17.09;61.50
62508;BME280;48556;51.972;4.624;2022-09-16T02:07:10;101217.88;;;17.42;61.30
62508;BME280;48556;51.972;4.624;2022-09-16T02:09:42;101212.44;;;17.45;60.94
62508;BME280;48556;51.972;4.624;2022-09-16T02:12:15;101207.63;;;17.56;60.70
62508;BME280;48556;51.972;4.624;2022-09-16T02:14:46;101211.22;;;17.55;60.79
62508;BME280;48556;51.972;4.624;2022-09-16T02:17:17;101202.78;;;17.68;60.41
62508;BME280;48556;51.972;4.624;2022-09-16T02:20:04;101214.50;;;17.87;59.45
62508;BME280;48556;51.972;4.624;2022-09-16T02:22:46;101211.66;;;18.17;59.17
62508;BME280;48556;51.972;4.624;2022-09-16T02:25:16;101209.00;;;17.93;59.43
62508;BME280;48556;51.972;4.624;2022-09-16T02:27:46;101213.00;;;17.80;59.88
62508;BME280;48556;51.972;4.624;2022-09-16T02:30:17;101217.63;;;18.00;59.37
62508;BME280;48556;51.972;4.624;2022-09-16T02:32:52;101212.78;;;17.86;59.77
62508;BME280;48556;51.972;4.624;2022-09-16T02:35:20;101207.06;;;17.72;60.14
62508;BME280;48556;51.972;4.624;2022-09-16T02:37:52;101208.44;;;17.58;59.71
62508;BME280;48556;51.972;4.624;2022-09-16T02:40:25;101201.69;;;17.48;59.60
62508;BME280;48556;51.972;4.624;2022-09-16T02:42:52;101209.00;;;17.93;58.91
62508;BME280;48556;51.972;4.624;2022-09-16T02:45:25;101211.66;;;17.68;59.44
62508;BME280;48556;51.972;4.624;2022-09-16T02:48:03;101212.56;;;17.42;60.49
62508;BME280;48556;51.972;4.624;2022-09-16T02:50:43;101217.88;;;17.42;59.78
62508;BME280;48556;51.972;4.624;2022-09-16T02:53:32;101213.22;;;17.49;59.53
62508;BME280;48556;51.972;4.624;2022-09-16T02:56:52;101216.56;;;17.02;60.26
62508;BME280;48556;51.972;4.624;2022-09-16T02:58:58;101207.13;;;17.70;59.13
62508;BME280;48556;51.972;4.624;2022-09-16T03:01:27;101220.84;;;17.33;60.31
62508;BME280;48556;51.972;4.624;2022-09-16T03:03:53;101225.75;;;17.45;60.44
62508;BME280;48556;51.972;4.624;2022-09-16T03:06:25;101225.97;;;17.39;60.94
62508;BME280;48556;51.972;4.624;2022-09-16T03:08:55;101222.28;;;16.31;61.98
62508;BME280;48556;51.972;4.624;2022-09-16T03:14:58;101227.03;;;16.18;63.35
62508;BME280;48556;51.972;4.624;2022-09-16T03:20:59;101212.72;;;16.26;60.62
62508;BME280;48556;51.972;4.624;2022-09-16T03:23:55;101209.22;;;16.23;60.39
62508;BME280;48556;51.972;4.624;2022-09-16T03:26:54;101206.63;;;16.50;59.24
62508;BME280;48556;51.972;4.624;2022-09-16T03:29:34;101201.75;;;16.36;59.32
62508;BME280;48556;51.972;4.624;2022-09-16T03:32:36;101206.56;;;16.82;57.86
62508;BME280;48556;51.972;4.624;2022-09-16T03:35:12;101198.41;;;17.15;57.79
62508;BME280;48556;51.972;4.624;2022-09-16T03:37:43;101195.69;;;17.16;57.76
62508;BME280;48556;51.972;4.624;2022-09-16T03:40:14;101193.97;;;17.42;56.67
62508;BME280;48556;51.972;4.624;2022-09-16T03:42:42;101192.28;;;17.39;56.69
62508;BME280;48556;51.972;4.624;2022-09-16T03:45:14;101199.81;;;17.27;57.13
62508;BME280;48556;51.972;4.624;2022-09-16T03:47:41;101200.94;;;17.19;57.69
62508;BME280;48556;51.972;4.624;2022-09-16T03:50:07;101197.03;;;17.30;57.39
62508;BME280;48556;51.972;4.624;2022-09-16T03:52:33;101191.00;;;17.24;57.28
62508;BME280;48556;51.972;4.624;2022-09-16T03:54:58;101199.03;;;17.48;57.11
62508;BME280;48556;51.972;4.624;2022-09-16T03:57:24;101206.34;;;17.43;57.56
62508;BME280;48556;51.972;4.624;2022-09-16T03:59:52;101222.84;;;17.53;56.65
62508;BME280;48556;51.972;4.624;2022-09-16T04:02:17;101222.22;;;17.45;57.99
62508;BME280;48556;51.972;4.624;2022-09-16T04:04:43;101222.69;;;17.31;58.42
62508;BME280;48556;51.972;4.624;2022-09-16T04:07:08;101215.44;;;16.81;59.31
62508;BME280;48556;51.972;4.624;2022-09-16T04:09:34;101216.22;;;16.84;59.01
62508;BME280;48556;51.972;4.624;2022-09-16T04:12:01;101219.22;;;16.73;59.27
62508;BME280;48556;51.972;4.624;2022-09-16T04:14:27;101212.38;;;16.95;59.00
62508;BME280;48556;51.972;4.624;2022-09-16T04:16:54;101199.03;;;16.96;58.72
62508;BME280;48556;51.972;4.624;2022-09-16T04:19:19;101197.81;;;17.06;58.87
62508;BME280;48556;51.972;4.624;2022-09-16T04:21:45;101194.00;;;17.15;59.16
62508;BME280;48556;51.972;4.624;2022-09-16T04:24:11;101195.50;;;17.22;58.79
62508;BME280;48556;51.972;4.624;2022-09-16T04:26:37;101183.63;;;17.33;59.25
62508;BME280;48556;51.972;4.624;2022-09-16T04:29:03;101191.00;;;17.51;59.29
62508;BME280;48556;51.972;4.624;2022-09-16T04:31:28;101193.91;;;17.43;59.34
62508;BME280;48556;51.972;4.624;2022-09-16T04:33:54;101187.06;;;17.62;58.64
62508;BME280;48556;51.972;4.624;2022-09-16T04:36:20;101187.06;;;17.62;58.12
62508;BME280;48556;51.972;4.624;2022-09-16T04:38:47;101188.09;;;17.32;59.19
62508;BME280;48556;51.972;4.624;2022-09-16T04:41:19;101175.22;;;17.45;58.76
62508;BME280;48556;51.972;4.624;2022-09-16T04:43:49;101185.88;;;17.45;58.48
62508;BME280;48556;51.972;4.624;2022-09-16T04:46:17;101188.28;;;17.53;58.72
62508;BME280;48556;51.972;4.624;2022-09-16T04:48:46;101185.16;;;17.40;59.15
62508;BME280;48556;51.972;4.624;2022-09-16T04:51:12;101182.94;;;17.28;59.91
62508;BME280;48556;51.972;4.624;2022-09-16T04:53:39;101178.38;;;17.31;59.80
62508;BME280;48556;51.972;4.624;2022-09-16T04:58:45;101185.97;;;17.42;60.17
62508;BME280;48556;51.972;4.624;2022-09-16T05:01:16;101186.63;;;17.49;60.17
62508;BME280;48556;51.972;4.624;2022-09-16T05:03:47;101179.00;;;17.13;60.29
62508;BME280;48556;51.972;4.624;2022-09-16T05:06:16;101183.56;;;16.81;60.68
62508;BME280;48556;51.972;4.624;2022-09-16T05:08:42;101190.63;;;16.82;60.72
62508;BME280;48556;51.972;4.624;2022-09-16T05:11:10;101185.72;;;16.69;61.05
62508;BME280;48556;51.972;4.624;2022-09-16T05:13:37;101194.91;;;16.57;61.22
62508;BME280;48556;51.972;4.624;2022-09-16T05:16:11;101193.41;;;16.49;61.94
62508;BME280;48556;51.972;4.624;2022-09-16T05:18:38;101188.84;;;16.54;61.90
62508;BME280;48556;51.972;4.624;2022-09-16T05:21:07;101193.25;;;16.55;62.18
62508;BME280;48556;51.972;4.624;2022-09-16T05:23:33;101194.09;;;16.55;62.37
62508;BME280;48556;51.972;4.624;2022-09-16T05:26:04;101199.72;;;16.73;61.59
62508;BME280;48556;51.972;4.624;2022-09-16T05:28:31;101190.34;;;16.63;61.89
62508;BME280;48556;51.972;4.624;2022-09-16T05:31:29;101187.94;;;16.55;61.93
62508;BME280;48556;51.972;4.624;2022-09-16T05:34:01;101198.69;;;16.50;62.22
62508;BME280;48556;51.972;4.624;2022-09-16T05:36:30;101201.16;;;16.56;62.22
62508;BME280;48556;51.972;4.624;2022-09-16T05:38:56;101199.31;;;16.88;61.66
62508;BME280;48556;51.972;4.624;2022-09-16T05:41:22;101207.09;;;16.93;61.74
62508;BME280;48556;51.972;4.624;2022-09-16T05:43:48;101191.34;;;16.88;61.98
62508;BME280;48556;51.972;4.624;2022-09-16T05:46:21;101198.78;;;17.04;61.85
62508;BME280;48556;51.972;4.624;2022-09-16T05:48:48;101196.22;;;17.28;61.56
62508;BME280;48556;51.972;4.624;2022-09-16T05:51:17;101199.63;;;17.31;61.65
62508;BME280;48556;51.972;4.624;2022-09-16T05:53:45;101200.06;;;17.44;61.59
62508;BME280;48556;51.972;4.624;2022-09-16T05:56:13;101204.69;;;17.39;61.63
62508;BME280;48556;51.972;4.624;2022-09-16T05:58:40;101205.13;;;17.27;61.67
62508;BME280;48556;51.972;4.624;2022-09-16T06:01:15;101208.34;;;17.62;61.18
62508;BME280;48556;51.972;4.624;2022-09-16T06:03:43;101217.28;;;17.84;60.86
62508;BME280;48556;51.972;4.624;2022-09-16T06:06:36;101212.88;;;17.58;60.10
62508;BME280;48556;51.972;4.624;2022-09-16T06:09:16;101224.84;;;17.19;60.46
62508;BME280;48556;51.972;4.624;2022-09-16T06:11:45;101238.31;;;16.56;59.83
62508;BME280;48556;51.972;4.624;2022-09-16T06:14:11;101254.50;;;15.50;61.31
62508;BME280;48556;51.972;4.624;2022-09-16T06:16:38;101259.66;;;15.21;62.18
62508;BME280;48556;51.972;4.624;2022-09-16T06:19:07;101241.28;;;14.76;62.49
62508;BME280;48556;51.972;4.624;2022-09-16T06:21:36;101245.81;;;14.71;59.55
62508;BME280;48556;51.972;4.624;2022-09-16T06:24:02;101231.50;;;14.39;60.55
62508;BME280;48556;51.972;4.624;2022-09-16T06:26:33;101242.50;;;14.17;61.65
62508;BME280;48556;51.972;4.624;2022-09-16T06:28:59;101226.72;;;14.14;63.86
62508;BME280;48556;51.972;4.624;2022-09-16T06:31:26;101222.88;;;14.29;64.84
62508;BME280;48556;51.972;4.624;2022-09-16T06:33:53;101226.22;;;14.39;64.78
62508;BME280;48556;51.972;4.624;2022-09-16T06:36:21;101235.19;;;14.73;63.41
62508;BME280;48556;51.972;4.624;2022-09-16T06:38:48;101231.50;;;15.17;62.63
62508;BME280;48556;51.972;4.624;2022-09-16T06:41:14;101233.16;;;15.21;62.01
62508;BME280;48556;51.972;4.624;2022-09-16T06:43:41;101236.28;;;15.37;61.17
62508;BME280;48556;51.972;4.624;2022-09-16T06:46:12;101233.66;;;15.36;61.37
62508;BME280;48556;51.972;4.624;2022-09-16T06:48:44;101224.47;;;15.51;59.24
62508;BME280;48556;51.972;4.624;2022-09-16T06:51:22;101227.78;;;15.94;59.87
62508;BME280;48556;51.972;4.624;2022-09-16T06:53:49;101227.50;;;16.03;58.52
62508;BME280;48556;51.972;4.624;2022-09-16T06:56:19;101221.69;;;16.21;58.07
62508;BME280;48556;51.972;4.624;2022-09-16T06:58:47;101214.16;;;16.36;57.30
62508;BME280;48556;51.972;4.624;2022-09-16T07:01:21;101221.28;;;16.34;57.43
62508;BME280;48556;51.972;4.624;2022-09-16T07:03:50;101215.50;;;16.79;56.74
62508;BME280;48556;51.972;4.624;2022-09-16T07:06:17;101201.28;;;16.52;56.51
62508;BME280;48556;51.972;4.624;2022-09-16T07:08:44;101206.16;;;16.66;56.81
62508;BME280;48556;51.972;4.624;2022-09-16T07:11:12;101199.31;;;16.58;56.55
62508;BME280;48556;51.972;4.624;2022-09-16T07:13:38;101204.50;;;16.62;56.37
62508;BME280;48556;51.972;4.624;2022-09-16T07:16:10;101204.50;;;16.91;56.12
62508;BME280;48556;51.972;4.624;2022-09-16T07:18:36;101209.75;;;16.93;56.73
62508;BME280;48556;51.972;4.624;2022-09-16T07:21:17;101218.81;;;17.14;56.92
62508;BME280;48556;51.972;4.624;2022-09-16T07:23:44;101228.22;;;17.50;55.96
62508;BME280;48556;51.972;4.624;2022-09-16T07:26:12;101225.31;;;17.57;55.41
62508;BME280;48556;51.972;4.624;2022-09-16T07:28:39;101230.63;;;17.57;56.66
62508;BME280;48556;51.972;4.624;2022-09-16T07:31:08;101225.25;;;17.34;55.47
62508;BME280;48556;51.972;4.624;2022-09-16T07:33:36;101240.91;;;17.68;56.04
62508;BME280;48556;51.972;4.624;2022-09-16T07:36:03;101237.41;;;17.66;54.21
62508;BME280;48556;51.972;4.624;2022-09-16T07:38:31;101235.59;;;17.68;54.90
62508;BME280;48556;51.972;4.624;2022-09-16T07:41:08;101245.00;;;17.52;56.02
62508;BME280;48556;51.972;4.624;2022-09-16T07:43:34;101237.81;;;17.29;56.09
62508;BME280;48556;51.972;4.624;2022-09-16T07:46:00;101245.38;;;17.66;56.27
62508;BME280;48556;51.972;4.624;2022-09-16T07:48:28;101242.03;;;17.61;57.34
62508;BME280;48556;51.972;4.624;2022-09-16T07:51:00;101251.09;;;17.55;57.40
62508;BME280;48556;51.972;4.624;2022-09-16T07:53:27;101252.16;;;17.50;58.11
62508;BME280;48556;51.972;4.624;2022-09-16T07:56:05;101253.97;;;17.49;58.01
62508;BME280;48556;51.972;4.624;2022-09-16T07:58:31;101249.31;;;17.29;58.70
62508;BME280;48556;51.972;4.624;2022-09-16T08:00:57;101247.31;;;17.63;57.13
62508;BME280;48556;51.972;4.624;2022-09-16T08:03:23;101242.91;;;17.87;56.45
62508;BME280;48556;51.972;4.624;2022-09-16T08:05:48;101245.34;;;18.18;55.77
62508;BME280;48556;51.972;4.624;2022-09-16T08:08:14;101247.63;;;17.79;56.19
62508;BME280;48556;51.972;4.624;2022-09-16T08:10:40;101245.44;;;18.15;55.30
62508;BME280;48556;51.972;4.624;2022-09-16T08:13:07;101245.44;;;18.15;55.53
62508;BME280;48556;51.972;4.624;2022-09-16T08:15:32;101255.56;;;18.29;55.02
62508;BME280;48556;51.972;4.624;2022-09-16T08:17:58;101257.94;;;18.60;54.80
62508;BME280;48556;51.972;4.624;2022-09-16T08:20:24;101265.25;;;19.01;53.59
62508;BME280;48556;51.972;4.624;2022-09-16T08:22:50;101275.66;;;18.38;52.92
62508;BME280;48556;51.972;4.624;2022-09-16T08:25:16;101291.72;;;18.11;54.69
62508;BME280;48556;51.972;4.624;2022-09-16T08:27:42;101285.59;;;17.57;56.70
62508;BME280;48556;51.972;4.624;2022-09-16T08:30:08;101297.88;;;17.06;59.68
62508;BME280;48556;51.972;4.624;2022-09-16T08:32:34;101288.41;;;17.25;58.70
62508;BME280;48556;51.972;4.624;2022-09-16T08:34:59;101290.50;;;17.16;57.12
62508;BME280;48556;51.972;4.624;2022-09-16T08:37:26;101295.38;;;17.30;56.37
62508;BME280;48556;51.972;4.624;2022-09-16T08:39:51;101299.31;;;17.16;55.55
62508;BME280;48556;51.972;4.624;2022-09-16T08:48:57;101288.47;;;17.76;55.28
62508;BME280;48556;51.972;4.624;2022-09-16T08:51:26;101301.53;;;18.34;53.77
62508;BME280;48556;51.972;4.624;2022-09-16T08:54:00;101299.56;;;18.63;52.65
62508;BME280;48556;51.972;4.624;2022-09-16T08:56:30;101313.97;;;18.81;54.01
62508;BME280;48556;51.972;4.624;2022-09-16T08:59:04;101319.75;;;19.16;52.63
62508;BME280;48556;51.972;4.624;2022-09-16T09:04:47;101333.19;;;17.65;56.67
62508;BME280;48556;51.972;4.624;2022-09-16T09:13:01;101313.41;;;17.47;58.44
62508;BME280;48556;51.972;4.624;2022-09-16T09:15:42;101318.50;;;17.26;58.32
62508;BME280;48556;51.972;4.624;2022-09-16T09:18:26;101319.22;;;16.73;59.76
62508;BME280;48556;51.972;4.624;2022-09-16T09:21:28;101315.88;;;17.53;58.67
62508;BME280;48556;51.972;4.624;2022-09-16T09:29:48;101326.34;;;18.82;56.53
62508;BME280;48556;51.972;4.624;2022-09-16T09:32:50;101322.75;;;18.36;55.78
62508;BME280;48556;51.972;4.624;2022-09-16T09:41:19;101325.31;;;18.14;54.70
62508;BME280;48556;51.972;4.624;2022-09-16T09:43:55;101326.84;;;17.69;55.13
62508;BME280;48556;51.972;4.624;2022-09-16T09:46:35;101331.34;;;17.40;56.92
62508;BME280;48556;51.972;4.624;2022-09-16T09:49:13;101336.09;;;17.02;57.76
62508;BME280;48556;51.972;4.624;2022-09-16T09:51:57;101336.09;;;17.02;58.48
62508;BME280;48556;51.972;4.624;2022-09-16T09:56:58;101320.34;;;16.96;58.97
62508;BME280;48556;51.972;4.624;2022-09-16T10:02:16;101316.31;;;17.12;59.44
62508;BME280;48556;51.972;4.624;2022-09-16T10:04:42;101314.25;;;17.20;59.16
62508;BME280;48556;51.972;4.624;2022-09-16T10:07:08;101315.16;;;17.48;57.90
62508;BME280;48556;51.972;4.624;2022-09-16T10:09:35;101313.28;;;17.51;58.62
62508;BME280;48556;51.972;4.624;2022-09-16T10:12:01;101311.63;;;17.74;57.66
62508;BME280;48556;51.972;4.624;2022-09-16T10:14:32;101322.56;;;17.90;57.64
62508;BME280;48556;51.972;4.624;2022-09-16T10:17:14;101327.94;;;17.63;57.14
62508;BME280;48556;51.972;4.624;2022-09-16T10:23:04;101340.19;;;16.82;57.70
62508;BME280;48556;51.972;4.624;2022-09-16T10:25:32;101308.59;;;16.73;58.40
62508;BME280;48556;51.972;4.624;2022-09-16T10:28:04;101312.69;;;16.85;57.03
62508;BME280;48556;51.972;4.624;2022-09-16T10:30:47;101325.56;;;17.27;56.14
62508;BME280;48556;51.972;4.624;2022-09-16T10:33:23;101318.81;;;17.17;56.22
62508;BME280;48556;51.972;4.624;2022-09-16T10:36:01;101310.25;;;17.87;56.66
62508;BME280;48556;51.972;4.624;2022-09-16T10:38:43;101312.75;;;17.67;56.21
62508;BME280;48556;51.972;4.624;2022-09-16T10:41:43;101307.59;;;17.87;55.89
62508;BME280;48556;51.972;4.624;2022-09-16T10:46:57;101300.28;;;18.19;56.06
62508;BME280;48556;51.972;4.624;2022-09-16T10:49:49;101301.91;;;18.71;55.20
62508;BME280;48556;51.972;4.624;2022-09-16T10:52:25;101298.81;;;18.59;54.92
62508;BME280;48556;51.972;4.624;2022-09-16T10:54:53;101296.38;;;18.77;54.62
62508;BME280;48556;51.972;4.624;2022-09-16T11:00:14;101297.19;;;18.55;53.92
62508;BME280;48556;51.972;4.624;2022-09-16T11:03:07;101298.88;;;18.58;55.71
62508;BME280;48556;51.972;4.624;2022-09-16T11:05:55;101298.84;;;18.82;55.30
62508;BME280;48556;51.972;4.624;2022-09-16T11:08:39;101308.53;;;18.84;53.82
62508;BME280;48556;51.972;4.624;2022-09-16T11:13:59;101308.59;;;19.49;49.28
62508;BME280;48556;51.972;4.624;2022-09-16T11:25:38;101295.78;;;21.53;41.55
62508;BME280;48556;51.972;4.624;2022-09-16T11:31:08;101329.28;;;20.87;42.69
62508;BME280;48556;51.972;4.624;2022-09-16T11:36:39;101322.81;;;20.13;41.53
62508;BME280;48556;51.972;4.624;2022-09-16T11:44:45;101307.63;;;21.47;41.08
62508;BME280;48556;51.972;4.624;2022-09-16T11:49:45;101322.63;;;20.95;41.47
62508;BME280;48556;51.972;4.624;2022-09-16T11:57:30;101327.34;;;19.25;46.70
62508;BME280;48556;51.972;4.624;2022-09-16T12:00:16;101338.69;;;19.30;47.55
62508;BME280;48556;51.972;4.624;2022-09-16T12:03:04;101335.16;;;19.08;47.22
62508;BME280;48556;51.972;4.624;2022-09-16T12:05:44;101323.81;;;19.47;47.46
62508;BME280;48556;51.972;4.624;2022-09-16T12:08:40;101331.81;;;20.10;46.25
62508;BME280;48556;51.972;4.624;2022-09-16T12:11:19;101329.75;;;21.14;44.72
62508;BME280;48556;51.972;4.624;2022-09-16T12:14:03;101320.91;;;22.02;42.50
62508;BME280;48556;51.972;4.624;2022-09-16T12:16:38;101319.34;;;21.63;41.84
62508;BME280;48556;51.972;4.624;2022-09-16T12:19:13;101319.59;;;21.40;43.38
62508;BME280;48556;51.972;4.624;2022-09-16T12:22:05;101320.81;;;22.55;39.82
62508;BME280;48556;51.972;4.624;2022-09-16T12:24:44;101312.22;;;23.44;36.93
62508;BME280;48556;51.972;4.624;2022-09-16T12:30:01;101331.88;;;23.91;36.17
62508;BME280;48556;51.972;4.624;2022-09-16T12:32:53;101322.34;;;21.92;38.27
62508;BME280;48556;51.972;4.624;2022-09-16T12:35:45;101330.63;;;21.51;39.18
62508;BME280;48556;51.972;4.624;2022-09-16T12:38:18;101332.78;;;21.25;39.64
62508;BME280;48556;51.972;4.624;2022-09-16T12:51:21;101376.00;;;19.75;44.71
62508;BME280;48556;51.972;4.624;2022-09-16T12:59:52;101363.41;;;18.16;43.63
62508;BME280;48556;51.972;4.624;2022-09-16T13:02:41;101363.25;;;18.20;49.34
62508;BME280;48556;51.972;4.624;2022-09-16T13:05:35;101341.19;;;18.66;45.79
62508;BME280;48556;51.972;4.624;2022-09-16T13:08:20;101345.25;;;18.76;45.36
62508;BME280;48556;51.972;4.624;2022-09-16T13:10:56;101338.75;;;18.83;44.90
62508;BME280;48556;51.972;4.624;2022-09-16T13:13:31;101349.25;;;18.39;47.94
62508;BME280;48556;51.972;4.624;2022-09-16T13:15:59;101349.94;;;18.20;49.21
62508;BME280;48556;51.972;4.624;2022-09-16T13:18:39;101357.31;;;18.12;49.47
62508;BME280;48556;51.972;4.624;2022-09-16T13:21:24;101348.00;;;18.00;51.07
62508;BME280;48556;51.972;4.624;2022-09-16T13:24:03;101344.72;;;17.37;52.02
62508;BME280;48556;51.972;4.624;2022-09-16T13:26:39;101349.03;;;17.41;51.87
62508;BME280;48556;51.972;4.624;2022-09-16T13:29:30;101345.44;;;16.84;52.67
62508;BME280;48556;51.972;4.624;2022-09-16T13:32:03;101357.44;;;16.67;55.44
62508;BME280;48556;51.972;4.624;2022-09-16T13:34:29;101375.34;;;16.61;57.09
62508;BME280;48556;51.972;4.624;2022-09-16T13:36:55;101387.31;;;16.44;56.23
62508;BME280;48556;51.972;4.624;2022-09-16T13:39:34;101354.22;;;16.25;56.49
62508;BME280;48556;51.972;4.624;2022-09-16T13:42:17;101359.63;;;16.53;57.12
62508;BME280;48556;51.972;4.624;2022-09-16T13:44:45;101342.91;;;16.51;54.88
62508;BME280;48556;51.972;4.624;2022-09-16T13:52:27;101332.53;;;17.03;54.90
62508;BME280;48556;51.972;4.624;2022-09-16T13:54:55;101323.44;;;17.10;54.42
62508;BME280;48556;51.972;4.624;2022-09-16T14:11:40;101314.84;;;21.27;46.17
62508;BME280;48556;51.972;4.624;2022-09-16T14:14:15;101309.97;;;23.52;40.20
62508;BME280;48556;51.972;4.624;2022-09-16T14:16:45;101313.44;;;25.00;37.13
62508;BME280;48556;51.972;4.624;2022-09-16T14:21:58;101310.56;;;26.87;33.50
62508;BME280;48556;51.972;4.624;2022-09-16T14:24:24;101310.66;;;26.09;33.05
62508;BME280;48556;51.972;4.624;2022-09-16T14:26:55;101310.13;;;25.64;34.44
62508;BME280;48556;51.972;4.624;2022-09-16T14:29:23;101323.28;;;24.00;36.72
62508;BME280;48556;51.972;4.624;2022-09-16T14:31:53;101329.31;;;23.27;39.00
62508;BME280;48556;51.972;4.624;2022-09-16T14:34:30;101321.09;;;23.77;39.52
62508;BME280;48556;51.972;4.624;2022-09-16T14:36:59;101308.41;;;25.63;36.30
62508;BME280;48556;51.972;4.624;2022-09-16T14:39:26;101319.19;;;26.79;34.51
62508;BME280;48556;51.972;4.624;2022-09-16T14:41:59;101321.47;;;26.85;32.61
62508;BME280;48556;51.972;4.624;2022-09-16T14:44:47;101303.72;;;28.02;30.71
62508;BME280;48556;51.972;4.624;2022-09-16T14:47:27;101314.69;;;25.76;33.53
62508;BME280;48556;51.972;4.624;2022-09-16T14:50:13;101322.81;;;24.51;33.69
62508;BME280;48556;51.972;4.624;2022-09-16T14:52:39;101319.84;;;23.52;35.43
62508;BME280;48556;51.972;4.624;2022-09-16T14:55:24;101310.00;;;22.23;38.12
62508;BME280;48556;51.972;4.624;2022-09-16T14:57:50;101306.72;;;22.99;36.82
62508;BME280;48556;51.972;4.624;2022-09-16T15:00:16;101304.19;;;24.19;34.76
62508;BME280;48556;51.972;4.624;2022-09-16T15:03:02;101297.63;;;25.63;31.64
62508;BME280;48556;51.972;4.624;2022-09-16T15:05:34;101295.72;;;27.29;28.99
62508;BME280;48556;51.972;4.624;2022-09-16T15:08:32;101289.91;;;27.94;28.07
62508;BME280;48556;51.972;4.624;2022-09-16T15:11:05;101289.84;;;28.75;26.46
62508;BME280;48556;51.972;4.624;2022-09-16T15:13:37;101287.50;;;29.25;26.72
62508;BME280;48556;51.972;4.624;2022-09-16T15:18:35;101302.78;;;27.43;27.02
62508;BME280;48556;51.972;4.624;2022-09-16T15:21:18;101298.75;;;25.73;30.79
62508;BME280;48556;51.972;4.624;2022-09-16T15:23:48;101317.03;;;23.69;34.47
62508;BME280;48556;51.972;4.624;2022-09-16T15:26:23;101306.34;;;22.24;35.86
62508;BME280;48556;51.972;4.624;2022-09-16T15:29:01;101298.69;;;21.65;37.81
62508;BME280;48556;51.972;4.624;2022-09-16T15:31:38;101297.34;;;21.92;36.33
62508;BME280;48556;51.972;4.624;2022-09-16T15:36:58;101291.34;;;23.03;33.87
62508;BME280;48556;51.972;4.624;2022-09-16T15:39:28;101304.31;;;22.63;33.56
62508;BME280;48556;51.972;4.624;2022-09-16T15:42:18;101304.53;;;21.56;35.70
62508;BME280;48556;51.972;4.624;2022-09-16T15:44:48;101310.84;;;20.61;38.12
62508;BME280;48556;51.972;4.624;2022-09-16T15:50:03;101311.72;;;19.81;40.27
62508;BME280;48556;51.972;4.624;2022-09-16T15:52:52;101327.97;;;20.37;40.01
62508;BME280;48556;51.972;4.624;2022-09-16T15:55:39;101319.50;;;20.47;38.94